Terminal Aerodrome Forecast
Issued by NWS

Home | Current Version | Previous Version | Text Only | Print | Product List | Glossary On
Versions: 1 2 3 4 5 6 7 8 9 10 11 12 13 14 15 16
000
FTUS43 KPAH 260500
TAFCGI
TAF
KCGI 260520Z 2606/2706 19006KT P6SM SKC
      TEMPO 2609/2612 4SM BR
     FM261400 21010G15KT P6SM SCT080
     FM270000 21008KT P6SM BKN120=

USA.gov is the U.S. government's official web portal to all federal, state and local government web resources and services.